createdAt,value
2022-09-18T00:02:34.063Z,1010.2
2022-09-18T00:08:53.972Z,1010.16
2022-09-18T00:15:17.107Z,1010.18
2022-09-18T00:21:36.998Z,1010.16
2022-09-18T00:27:59.993Z,1010.14
2022-09-18T00:34:20.159Z,1010.16
2022-09-18T00:40:42.982Z,1010.16
2022-09-18T00:47:03.017Z,1010.16
2022-09-18T00:53:26.126Z,1010.1
2022-09-18T00:59:45.986Z,1010.12
2022-09-18T01:06:08.998Z,1010.08
2022-09-18T01:12:29.106Z,1010.04
2022-09-18T01:18:51.998Z,1010.08
2022-09-18T01:25:11.981Z,1010.08
2022-09-18T01:31:35.138Z,1010.08
2022-09-18T01:37:54.982Z,1010.1
2022-09-18T01:44:17.989Z,1010.1
2022-09-18T01:50:38.094Z,1010.16
2022-09-18T01:57:01.034Z,1010.14
2022-09-18T02:03:20.991Z,1010.14
2022-09-18T02:09:44.109Z,1010.14
2022-09-18T02:16:04.030Z,1010.16
2022-09-18T02:22:26.978Z,1010.14
2022-09-18T02:28:47.145Z,1010.1
2022-09-18T02:35:09.984Z,1010.08
2022-09-18T02:41:30.005Z,1010.1
2022-09-18T02:47:53.123Z,1010.04
2022-09-18T02:54:13.027Z,1010.06
2022-09-18T03:00:35.981Z,1010.06
2022-09-18T03:06:56.120Z,1010.06
2022-09-18T03:13:18.981Z,1010.02
2022-09-18T03:36:41.617Z,1009.84
2022-09-18T03:43:00.973Z,1009.84
2022-09-18T03:49:23.981Z,1009.82
2022-09-18T03:55:44.103Z,1009.86
2022-09-18T04:02:07.024Z,1009.92
2022-09-18T04:08:27.013Z,1009.92
2022-09-18T04:14:50.114Z,1009.96
2022-09-18T04:21:09.990Z,1009.96
2022-09-18T04:27:32.999Z,1010
2022-09-18T04:33:53.115Z,1010
2022-09-18T04:40:16.050Z,1010
2022-09-18T04:46:36.013Z,1010
2022-09-18T04:52:59.125Z,1009.98
2022-09-18T04:59:18.993Z,1009.94
2022-09-18T05:05:42.021Z,1009.86
2022-09-18T05:12:02.122Z,1009.86
2022-09-18T05:18:24.978Z,1009.84
2022-09-18T05:24:45.003Z,1009.84
2022-09-18T05:31:08.211Z,1009.84
2022-09-18T05:37:28.019Z,1009.82
2022-09-18T05:43:50.971Z,1009.8
2022-09-18T05:50:11.097Z,1009.8
2022-09-18T05:56:34.096Z,1009.84
2022-09-18T06:02:54.054Z,1009.9
2022-09-18T06:09:17.102Z,1009.92
2022-09-18T06:15:36.987Z,1009.9
2022-09-18T06:22:00.013Z,1009.94
2022-09-18T06:28:20.225Z,1009.96
2022-09-18T06:34:42.968Z,1009.98
2022-09-18T06:41:02.972Z,1009.98
2022-09-18T06:47:26.163Z,1010.02
2022-09-18T06:53:45.999Z,1010.08
2022-09-18T07:00:08.988Z,1010.06
2022-09-18T07:06:29.103Z,1010.06
2022-09-18T07:12:52.085Z,1010.08
2022-09-18T07:19:11.979Z,1010.04
2022-09-18T07:25:35.175Z,1009.98
2022-09-18T07:31:55.009Z,1009.94
2022-09-18T07:38:17.980Z,1009.96
2022-09-18T07:44:38.104Z,1009.98
2022-09-18T07:51:01.009Z,1009.94
2022-09-18T07:57:20.980Z,1009.96
2022-09-18T08:03:44.104Z,1009.94
2022-09-18T08:10:04.044Z,1009.9
2022-09-18T08:16:27.069Z,1009.9
2022-09-18T08:22:47.364Z,1009.96
2022-09-18T08:45:00.144Z,1009.9
2022-09-18T08:51:22.997Z,1009.94
2022-09-18T08:57:43.025Z,1009.94
2022-09-18T09:04:06.121Z,1009.96
2022-09-18T09:10:25.992Z,1009.9
2022-09-18T09:16:49.006Z,1009.86
2022-09-18T09:23:09.149Z,1009.94
2022-09-18T09:29:32.030Z,1009.94
2022-09-18T09:35:51.985Z,1009.94
2022-09-18T09:42:15.114Z,1009.86
2022-09-18T09:48:34.986Z,1009.84
2022-09-18T09:54:58.039Z,1009.86
2022-09-18T10:01:19.302Z,1009.84
2022-09-18T10:07:41.978Z,1009.78
2022-09-18T10:14:02.033Z,1009.73
2022-09-18T10:20:25.130Z,1009.73
2022-09-18T10:26:45.003Z,1009.73
2022-09-18T10:33:07.991Z,1009.69
2022-09-18T10:39:31.328Z,1009.63
2022-09-18T10:45:51.020Z,1009.65
2022-09-18T10:52:11.101Z,1009.69
2022-09-18T10:58:34.138Z,1009.71
2022-09-18T11:04:54.012Z,1009.63
2022-09-18T11:11:16.978Z,1009.57
2022-09-18T11:17:37.140Z,1009.61
2022-09-18T11:24:00.098Z,1009.57
2022-09-18T11:30:20.056Z,1009.57
2022-09-18T11:36:43.148Z,1009.57
2022-09-18T11:43:03.067Z,1009.55
2022-09-18T11:49:25.985Z,1009.53
2022-09-18T11:55:46.105Z,1009.49
2022-09-18T12:02:09.022Z,1009.51
2022-09-18T12:08:27.688Z,1009.51
2022-09-18T12:14:50.731Z,1009.49
2022-09-18T12:21:10.641Z,1009.47
2022-09-18T12:27:33.623Z,1009.45
2022-09-18T12:33:53.738Z,1009.41
2022-09-18T12:40:17.352Z,1009.39
2022-09-18T12:46:37.311Z,1009.28
2022-09-18T12:53:09.322Z,1009.18
2022-09-18T12:59:20.268Z,1009.16
2022-09-18T13:05:43.265Z,1009.08
2022-09-18T13:12:03.400Z,1009.04
2022-09-18T13:18:26.976Z,1008.98
2022-09-18T13:24:47.172Z,1008.96
2022-09-18T13:41:15.072Z,1008.88
2022-09-18T13:47:34.952Z,1008.88
2022-09-18T13:53:57.983Z,1008.9
2022-09-18T14:00:18.100Z,1008.94
2022-09-18T14:06:40.966Z,1009.04
2022-09-18T14:13:00.960Z,1009.08
2022-09-18T14:19:24.097Z,1009.1
2022-09-18T14:25:43.944Z,1009.14
2022-09-18T14:32:06.971Z,1009.24
2022-09-18T14:38:27.070Z,1009.18
2022-09-18T14:44:49.946Z,1009.14
2022-09-18T14:51:09.954Z,1009.14
2022-09-18T14:57:33.065Z,1009.14
2022-09-18T15:03:52.934Z,1009.1
2022-09-18T15:10:15.948Z,1009
2022-09-18T15:16:36.138Z,1008.94
2022-09-18T15:22:58.960Z,1008.88
2022-09-18T15:29:19.051Z,1008.84
2022-09-18T15:35:42.251Z,1008.86
2022-09-18T15:42:01.984Z,1008.84
2022-09-18T15:48:24.993Z,1008.86
2022-09-18T15:54:45.384Z,1008.84
2022-09-18T16:01:08.117Z,1008.88
2022-09-18T16:07:27.977Z,1008.86
2022-09-18T16:13:51.113Z,1008.84
2022-09-18T16:20:10.973Z,1008.77
2022-09-18T16:26:33.981Z,1008.69
2022-09-18T16:32:54.095Z,1008.65
2022-09-18T16:39:16.998Z,1008.65
2022-09-18T16:45:36.978Z,1008.63
2022-09-18T16:52:00.102Z,1008.69
2022-09-18T16:58:20.011Z,1008.69
2022-09-18T17:04:42.991Z,1008.75
2022-09-18T17:11:03.090Z,1008.75
2022-09-18T17:17:25.975Z,1008.73
2022-09-18T17:23:45.996Z,1008.69
2022-09-18T17:30:09.103Z,1008.77
2022-09-18T17:36:28.985Z,1008.81
2022-09-18T17:42:51.970Z,1008.88
2022-09-18T17:49:12.110Z,1008.9
2022-09-18T17:55:34.973Z,1008.94
2022-09-18T18:01:55.020Z,1009.12
2022-09-18T18:08:18.093Z,1009.28
2022-09-18T18:14:37.979Z,1009.39
2022-09-18T18:21:00.973Z,1009.47
2022-09-18T18:27:21.102Z,1009.57
2022-09-18T18:58:00.087Z,1009.9
2022-09-18T19:04:22.978Z,1009.92
2022-09-18T19:10:42.972Z,1009.98
2022-09-18T19:17:06.091Z,1009.96
2022-09-18T19:23:26.004Z,1009.98
2022-09-18T19:29:48.976Z,1009.96
2022-09-18T19:36:09.112Z,1010.16
2022-09-18T19:42:31.964Z,1010.22
2022-09-18T19:48:51.964Z,1010.24
2022-09-18T19:55:15.103Z,1010.31
2022-09-18T20:01:34.993Z,1010.33
2022-09-18T20:07:58.030Z,1010.43
2022-09-18T20:14:17.994Z,1010.49
2022-09-18T20:20:40.976Z,1010.53
2022-09-18T20:27:00.971Z,1010.53
2022-09-18T20:33:23.997Z,1010.53
2022-09-18T20:39:43.991Z,1010.51
2022-09-18T20:46:06.972Z,1010.55
2022-09-18T20:52:27.098Z,1010.69
2022-09-18T20:58:49.981Z,1010.79
2022-09-18T21:05:09.994Z,1010.81
2022-09-18T21:11:33.109Z,1010.77
2022-09-18T21:17:52.983Z,1010.77
2022-09-18T21:24:15.994Z,1010.81
2022-09-18T21:30:36.099Z,1010.81
2022-09-18T21:36:58.997Z,1010.81
2022-09-18T21:43:18.991Z,1010.75
2022-09-18T21:49:42.102Z,1010.73
2022-09-18T21:56:01.986Z,1010.69
2022-09-18T22:20:19.016Z,1010.79
2022-09-18T22:26:38.969Z,1010.79
2022-09-18T22:33:01.981Z,1010.79
2022-09-18T22:39:21.998Z,1010.83
2022-09-18T22:45:44.990Z,1010.83
2022-09-18T22:52:05.062Z,1010.85
2022-09-18T22:58:28.094Z,1010.87
2022-09-18T23:04:48.043Z,1010.91
2022-09-18T23:11:10.986Z,1010.99
2022-09-18T23:17:31.007Z,1011.01
2022-09-18T23:23:53.982Z,1011.01
2022-09-18T23:30:13.981Z,1011.05
2022-09-18T23:36:37.098Z,1011.12
2022-09-18T23:42:56.989Z,1011.16
2022-09-18T23:49:19.995Z,1011.2
2022-09-18T23:55:40.093Z,1011.2
